LFBL/LIG METAR and TAF weather

Enter ICAO airport designator
Station Type Date Time Source
LFBL METAR 2018/12/13 23:00 UTC NOAA

LFBL 132300Z AUTO 00000KT 5000 BR VV/// M00/M01 Q1010 TEMPO 2000 BR BECMG NSC


Station Type Date Time Source
LFBL Decoded METAR 2018/12/13 23:00 UTC NOAA

Limoges, France (LFBL) 45-52N 001-11E 402M
Dec 13, 2018 - 06:00 PM EST / 2018.12.13 2300 UTC
Wind: Calm:0
Visibility: 3 mile(s):0
Sky conditions: obscured
Weather: mist
Temperature: 32 F (0 C)
Dew Point: 30 F (-1 C)
Relative Humidity: 92%
Pressure (altimeter): 29.83 in. Hg (1010 hPa)
ob: LFBL 132300Z AUTO 00000KT 5000 BR VV/// M00/M01 Q1010 TEMPO 2000 BR BECMG NSC
cycle: 23

Station Type Date Time Source
LFBL TAF 2018/12/13 21:18 UTC NOAA

TAF
AMD LFBL 132109Z 1321/1418 04005KT 8000 NSC
TEMPO 1321/1409 2000 BR PROB30
TEMPO 1402/1407 0400 FG VV///
TEMPO 1409/1411 BKN009


Example: see airport list